Friday, October 31, 2014
04:58 UTC
  |  Log In   |  Register Free
Airport Search:

Owosso Community Airport
(KRNP)

Owosso Community Airport Diagram
No Airport Diagram Available

FAA data valid effective September 18, 2014 - November 13, 2014 (unless otherwise noted).

 
 
 
 
 
 
 
 
 
 
 
 
 
 

Current Aviation Weather for Owosso Community Airport (KRNP)

The most recent METAR observation for KRNP was updated at: 0419
METAR Summary (Translated METAR)
KRNP
310353Z AUTO 23003KT 10SM SCT042 SCT048 OVC110 07/03 A2999 RMK AO2 T00650027
K4M4
140000Z VRB05KT 25SM SKC 16/04
(13.4 nm NW from KRNP)
KFNT
310353Z AUTO 21004KT 10SM OVC042 08/03 A3000 RMK AO2 SLP163 T00830028
(17.4 nm SE from KRNP)
TAF Summary (Translated TAF)
KFNT
(17.4 nm SE from KRNP)
302200Z 3022/3118 23007KT P6SM OVC045 TEMPO 3022/3024 6SM -RA OVC035 FM310700 23005KT 5SM -SHRA OVC025 FM311400 27008KT 2SM SHRA OVC010
  Airport Weather Conditions for KRNP

 Current Weather at RNP
44° F
Overcast
Southwest winds at 3.5 mph
RNP NOAA Radar

Pressure: 29.99 in
Humidity: 77%
Wind: Southwest at 3.5 MPH (3 KT)
Dew Point: 36.9°F
Visibility: 10.00 mi


Airport Weather Forecast for KRNP

Translated METAR and TAF for KRNP
Translated METAR for KRNP (0453 UTC 31 October 2014)
found at http://aviationweather.gov/adds/metars/
 
METAR text: KRNP 310434Z AUTO 23003KT 10SM SCT065 SCT110 07/03 A2998 RMK AO2 T00660027
Conditions at: KRNP (OWOSSO , MI, US) observed 0434 UTC 31 October 2014
Temperature: 6.6°C (44°F)
Dewpoint: 2.7°C (37°F) [RH = 76%]
Pressure (altimeter): 29.98 inches Hg (1015.3 mb)
Winds: from the SW (230 degrees) at 3 MPH (3 knots; 1.6 m/s)
Visibility: 10 or more miles (16+ km)
Ceiling: at least 12,000 feet AGL
Clouds: scattered clouds at 6500 feet AGL
scattered clouds at 11000 feet AGL
Weather: automated observation with no human augmentation;
there may or may not be significant weather present at this time
Translated TAF for KRNP

There is no translated TAF available for this airport

Find All Airport Services Find A Hotel Find A Rental Car Find A Golf Course Find A Restaurant $100 Hamburger



FBO's on the Field
FBO Company Facility Photos Services Transportation Aviation Fuel Prices: Prices include tax
Catering Weather Repair Courtesy Rental Type 100LL JetA JetA+ MOGAS 8087
 
Owosso Community Airport

This FBO has not yet been rated
FS:Avfuel
Last Updated: Oct-03
Login to update fuel prices
SS:
Contact Owosso Community AirportMore FBO Information
 
Add another FBO Facility Photos Catering Weather Repair Courtesy Rental Type 100LL JetA JetA+ MOGAS 8087
Services Transportation Aviation Fuel Prices: Prices include tax


model-print
model-print
model-print
model-print